Inverness, CA

2:19 AM PDT on October 20, 2014 (GMT -0700)
MesoWest PT REYES RCA CA US DRI | Change Station
CLOSE
Current Station
Personal Weather Station
Location: Inverness, CA
Elevation: 86 ft
Nearby Weather Stations
Active Advisory: Beach Hazard Statement

Elev 86 ft 38.09 °N, 122.95 °W | Updated 59 minutes ago

Overcast
Overcast
60 °F
Feels Like 60 °F
N
6
Wind Variable Wind from SSE
Gusts 9.0 mph

Today
High -- | Low -- °F
--% Chance of Precip.
Yesterday
High -- | Low -- °F
Precip. -- in
7:25 AM 6:27 PM
Waning Crescent, 12% visible
Pressure 29.94 in
Visibility 10.0 miles
Clouds Mostly Cloudy 1900 ft
Overcast 3100 ft
Dew Point 59 °F
Humidity 96%
Rainfall -999.00 in
Snow Depth Not available.
UV 0 out of 12
Pollen 2.00 out of 12
Air Quality Not available.
Flu Activity Sporadic
METAR KO69 200855Z AUTO 00000KT 10SM BKN019 OVC031 15/14 A2994 RMK AO1

More Conditions Fewer Conditions

Pressure 29.94 in
Visibility 10.0 miles
Clouds Mostly Cloudy 1900 ft
Overcast 3100 ft
Dew Point 59 °F
Humidity 96%
Rainfall -999.00 in
Snow Depth Not available.
UV 0 out of 12
Pollen 2.00 out of 12
Air Quality Not available.
Flu Activity Sporadic
METAR KO69 200855Z AUTO 00000KT 10SM BKN019 OVC031 15/14 A2994 RMK AO1

More Conditions Fewer Conditions

10-Day Weather Forecast

Almanac

Astronomy

Oct. 20, 2014 Rise Set
Actual Time 7:25 AM PDT 6:27 PM PDT
Civil Twilight 6:58 AM PDT 6:54 PM PDT
Nautical Twilight 6:28 AM PDT 7:24 PM PDT
Astronomical Twilight 5:57 AM PDT 7:55 PM PDT
Moon 4:21 AM PDT 4:50 PM PDT
Length of Visible Light 11h 55m
Length of Day
11h 01m
Waning Crescent, 12% of the Moon is Illuminated
Today
Waning Crescent
Oct 23
New
Oct 30
First Quarter
Nov 6
Full
Nov 14
Last Quarter

Today's Extremes

State Highs State Lows

Community

WunderPhotos

Upload Photos

1,763,316 photos uploaded!

Nearby

Snow Depth

Station Depth Elevation
CSS Lab 0 in 6900 ft
Echo Peak 1 in 7800 ft
Squaw Valley 0 in 8200 ft
Rubicon #2 1 in 7500 ft
Forestdale Creek 0 in 8029 ft

Earthquake Activity

City Distance Mag. Time & Date
Cobb, California 59 miles 2.5 9:25 PM PDT
2014-10-19
Soledad, California 144 miles 2.6 3:21 PM PDT
2014-10-18
East Foothills, California 82 miles 2.6 8:16 AM PDT
2014-10-18
Minimum magnitude displayed is 2.5.

Coastal Water Temperatures

Place Temperature
Point Reyes, CA 61.0 °F
Arena Cove, CA 60.1 °F
San Francisco, CA 62.1 °F
Richmond, CA 64.0 °F

Nearby Weather Stations